Latest Weather Observations for St George

IDQ60801

Issued at 9:05 pm EST Wednesday 30 July 2014 (issued every 30 minutes, with the page automatically refreshed every 10 minutes)

About weather observations | Map of weather stations | Latest weather observations for QLD | Other Formats
Station Details ID: 043109 Name: ST GEORGE AIRPORT Lat: -28.05 Lon: 148.59 Height: 198.5 m
Data from the previous 72 hours. | See also: Recent months at St George
Date/Time
EST
Temp
°C
App
Temp
°C
Dew
Point
Rel
Hum
%
Delta-T
°C
Wind Press
QNH
hPa
Press
MSL
hPa
Rain
since 9 am
mm
Dir
 
Spd
km/h
Gust
km/h
Spd
kts
Gust
kts
30/09:00pm 9.0 5.9 -2.6 44 4.4 SSE 4 6 2 3 1021.2 1021.3 0.0
30/08:30pm 9.3 5.7 -3.3 41 4.7 SSE 6 7 3 4 1021.0 - 0.0
30/08:00pm 10.4 7.3 -2.6 40 5.0 SSE 4 7 2 4 1020.9 - 0.0
30/07:30pm 11.7 8.1 -3.6 34 5.8 NNE 6 7 3 4 1020.6 - 0.0
30/07:00pm 12.3 9.4 -3.9 32 6.2 ESE 2 7 1 4 1020.5 - 0.0
30/06:30pm 14.6 11.8 -3.7 28 7.2 SE 2 6 1 3 1020.2 - 0.0
30/06:00pm 18.3 14.0 -5.0 20 9.2 SE 9 9 5 5 1019.9 1020.0 0.0
30/05:30pm 20.6 16.7 -6.1 16 10.6 SSE 6 7 3 4 1019.7 - 0.0
30/05:00pm 22.1 18.3 -5.7 15 11.3 S 6 7 3 4 1019.6 - 0.0
30/04:30pm 22.8 19.2 -7.0 13 11.9 SE 4 9 2 5 1019.6 - 0.0
30/04:00pm 23.5 19.6 -6.5 13 12.2 NW 6 9 3 5 1019.5 - 0.0
30/03:30pm 23.2 18.7 -6.7 13 12.0 WSW 9 15 5 8 1019.7 - 0.0
30/03:00pm 23.3 18.8 -6.6 13 12.0 SW 9 17 5 9 1019.9 1020.0 0.0
30/02:30pm 23.9 19.6 -5.2 14 12.1 W 9 15 5 8 1020.1 - 0.0
30/02:00pm 23.3 18.9 -5.7 14 11.9 W 9 17 5 9 1020.3 - 0.0
30/01:30pm 22.6 18.8 -5.3 15 11.5 SSW 6 13 3 7 1020.6 - 0.0
30/01:00pm 22.4 17.7 -5.5 15 11.4 S 11 17 6 9 1021.0 - 0.0
30/12:30pm 23.0 19.2 -4.1 16 11.5 NW 7 13 4 7 1021.7 - 0.0
30/12:00pm 22.3 17.6 -4.7 16 11.2 WNW 11 15 6 8 1022.2 1022.3 0.0
30/11:30am 21.9 18.1 -3.5 18 10.8 WNW 7 13 4 7 1022.8 - 0.0
30/11:00am 21.6 17.7 -1.6 21 10.2 NW 9 15 5 8 1023.3 - 0.0
30/10:30am 20.5 17.2 0.4 26 9.1 NNW 7 11 4 6 1023.7 - 0.0
30/10:00am 19.1 15.5 0.7 29 8.3 NNW 9 15 5 8 1024.0 - 0.0
30/09:30am 17.5 14.0 1.5 34 7.2 N 9 13 5 7 1024.1 - 0.0
30/09:00am 14.3 10.6 2.2 44 5.4 N 11 13 6 7 1024.1 1024.2 0.0
30/08:30am 12.5 8.9 2.9 52 4.3 N 11 15 6 8 1023.9 - 0.0
30/08:00am 9.2 6.8 4.4 72 2.1 N 6 7 3 4 1023.7 - 0.0
30/07:56am 8.5 6.0 3.9 73 2.0 N 6 7 3 4 1023.7 - 0.0
30/07:30am 3.5 0.6 1.4 86 0.8 N 6 6 3 3 1023.5 - 0.0
30/07:00am 2.7 0.7 0.1 83 1.0 CALM 0 0 0 0 1023.3 - 0.0
30/06:30am 2.6 -0.2 -0.2 82 1.0 N 4 6 2 3 1023.0 - 0.0
30/06:00am 2.9 -0.3 0.5 84 0.9 N 7 9 4 5 1022.7 1022.8 0.0
30/05:30am 2.8 0.8 0.2 83 1.0 CALM 0 0 0 0 1022.5 - 0.0
30/05:00am 2.9 0.8 -0.7 77 1.3 CALM 0 0 0 0 1022.2 - 0.0
30/04:30am 3.9 1.9 0.2 77 1.4 CALM 0 0 0 0 1022.1 - 0.0
30/04:00am 3.8 1.8 -0.4 74 1.6 CALM 0 0 0 0 1022.1 - 0.0
30/03:30am 4.1 2.1 0.1 75 1.5 CALM 0 0 0 0 1022.1 - 0.0
30/03:00am 4.2 2.1 -0.6 71 1.8 CALM 0 0 0 0 1022.1 1022.2 0.0
30/02:30am 4.6 2.6 0.2 73 1.7 CALM 0 0 0 0 1022.0 - 0.0
30/02:00am 4.9 2.9 -0.1 70 1.9 CALM 0 0 0 0 1022.0 - 0.0
30/01:30am 5.3 3.2 -0.5 66 2.2 CALM 0 0 0 0 1022.1 - 0.0
30/01:00am 5.8 3.8 0.2 67 2.2 CALM 0 0 0 0 1022.3 - 0.0
30/12:30am 6.3 4.3 0.2 65 2.4 CALM 0 0 0 0 1022.3 - 0.0
30/12:00am 6.5 4.5 0.2 64 2.5 SE 0 0 0 0 1022.3 1022.4 0.0
 
Date/Time
EST
Temp
°C
App
Temp
°C
Dew
Point
Rel
Hum
%
Delta-T
°C
Wind Press
QNH
hPa
Press
MSL
hPa
Rain
since 9 am
mm
Dir
 
Spd
km/h
Gust
km/h
Spd
kts
Gust
kts
29/11:30pm 7.1 3.9 0.5 63 2.6 E 7 9 4 5 1022.1 - 0.0
29/11:00pm 7.5 4.3 0.9 63 2.7 ESE 7 9 4 5 1022.2 - 0.0
29/10:30pm 7.6 4.3 0.3 60 2.9 SE 7 9 4 5 1022.2 - 0.0
29/10:00pm 8.8 6.0 2.2 63 2.8 S 6 7 3 4 1022.1 - 0.0
29/09:30pm 8.0 4.6 1.6 64 2.6 SSW 9 11 5 6 1021.9 - 0.0
29/09:00pm 8.8 6.9 0.3 55 3.4 CALM 0 0 0 0 1021.4 1021.5 0.0
29/08:30pm 9.9 8.1 1.5 56 3.5 CALM 0 0 0 0 1021.2 - 0.0
29/08:00pm 10.6 8.3 0.1 48 4.3 NE 2 6 1 3 1021.0 - 0.0
29/07:30pm 11.8 9.2 1.2 48 4.5 E 4 7 2 4 1020.8 - 0.0
29/07:00pm 12.4 10.5 0.8 45 4.9 CALM 0 0 0 0 1020.5 - 0.0
29/06:30pm 14.1 12.1 -0.4 37 6.1 CALM 0 0 0 0 1020.2 - 0.0
29/06:00pm 16.7 13.8 -0.9 30 7.5 ESE 4 6 2 3 1020.0 1020.1 0.0
29/05:30pm 20.3 16.9 -0.3 25 9.2 SE 7 9 4 5 1019.8 - 0.0
29/05:00pm 21.9 18.4 -1.4 21 10.3 SSW 7 9 4 5 1019.6 - 0.0
29/04:30pm 22.6 18.7 -1.5 20 10.7 SSW 9 13 5 7 1019.5 - 0.0
29/04:00pm 22.7 19.3 -2.1 19 10.9 SW 6 11 3 6 1019.4 - 0.0
29/03:30pm 23.5 20.0 -1.4 19 11.1 W 7 15 4 8 1019.4 - 0.0
29/03:00pm 23.3 19.2 -0.2 21 10.7 SW 11 19 6 10 1019.6 1019.7 0.0
29/02:30pm 22.6 19.1 -1.5 20 10.7 W 7 15 4 8 1019.9 - 0.0
29/02:00pm 22.8 17.5 -0.6 21 10.6 SW 17 24 9 13 1020.4 - 0.0
29/01:30pm 22.5 18.3 -0.9 21 10.5 WSW 11 17 6 9 1020.8 - 0.0
29/01:00pm 22.0 17.4 -1.3 21 10.3 SSW 13 19 7 10 1021.4 - 0.0
29/12:30pm 22.3 18.5 -1.1 21 10.4 WSW 9 13 5 7 1021.9 - 0.0
29/12:00pm 21.3 18.0 -0.1 24 9.6 WSW 7 13 4 7 1022.4 1022.5 0.0
29/11:30am 21.2 18.1 0.4 25 9.4 NW 6 9 3 5 1023.1 - 0.0
29/11:00am 20.1 17.1 1.0 28 8.7 N 6 9 3 5 1023.3 - 0.0
29/10:30am 18.8 15.5 0.4 29 8.2 N 7 11 4 6 1023.6 - 0.0
29/10:00am 16.9 13.7 0.5 33 7.2 NNE 7 13 4 7 1023.8 - 0.0
29/09:30am 15.3 12.2 1.1 38 6.2 NNE 7 11 4 6 1023.9 - 0.0
29/09:00am 13.0 10.0 2.3 48 4.7 E 7 9 4 5 1023.8 1023.9 0.0
29/08:30am 10.5 7.6 2.6 58 3.4 E 7 9 4 5 1023.6 - 0.0
29/08:00am 7.5 4.8 2.6 71 2.1 ESE 6 7 3 4 1023.2 - 0.0
29/07:30am 3.8 0.9 1.4 84 0.9 SE 6 9 3 5 1023.1 - 0.0
29/07:00am 2.7 0.8 0.3 84 0.9 CALM 0 0 0 0 1022.9 - 0.0
29/06:30am 2.7 0.7 -0.1 82 1.0 CALM 0 0 0 0 1022.6 - 0.0
29/06:00am 3.1 1.2 0.5 83 1.0 CALM 0 0 0 0 1022.3 1022.4 0.0
29/05:30am 3.3 1.4 0.5 82 1.1 CALM 0 0 0 0 1022.1 - 0.0
29/05:00am 3.5 0.2 0.4 80 1.2 N 7 9 4 5 1021.8 - 0.0
29/04:30am 3.8 1.8 0.1 77 1.4 CALM 0 0 0 0 1021.7 - 0.0
29/04:00am 3.6 1.6 0.0 77 1.4 CALM 0 0 0 0 1021.4 - 0.0
29/03:30am 4.0 2.0 0.0 75 1.5 CALM 0 0 0 0 1021.3 - 0.0
29/03:00am 4.5 2.6 0.5 75 1.5 CALM 0 0 0 0 1021.2 1021.3 0.0
29/02:30am 4.8 2.5 0.2 72 1.8 NNE 2 6 1 3 1021.2 - 0.0
29/02:00am 5.4 2.1 0.4 70 2.0 NNE 7 9 4 5 1021.3 - 0.0
29/01:30am 5.8 2.7 0.4 68 2.1 NE 6 6 3 3 1021.5 - 0.0
29/01:00am 7.4 4.1 0.4 61 2.8 NE 7 9 4 5 1021.7 - 0.0
29/12:30am 6.8 3.7 1.1 67 2.3 NNE 7 9 4 5 1021.8 - 0.0
29/12:00am 6.6 3.4 0.9 67 2.3 NNE 7 7 4 4 1022.1 1022.2 0.0
 
Date/Time
EST
Temp
°C
App
Temp
°C
Dew
Point
Rel
Hum
%
Delta-T
°C
Wind Press
QNH
hPa
Press
MSL
hPa
Rain
since 9 am
mm
Dir
 
Spd
km/h
Gust
km/h
Spd
kts
Gust
kts
28/11:30pm 6.3 3.4 1.2 70 2.1 NNE 6 6 3 3 1022.2 - 0.0
28/11:00pm 6.6 3.6 0.9 67 2.3 ENE 6 7 3 4 1022.2 - 0.0
28/10:30pm 7.0 3.8 0.9 65 2.5 ENE 7 9 4 5 1022.2 - 0.0
28/10:00pm 7.4 4.4 0.8 63 2.7 E 6 7 3 4 1022.1 - 0.0
28/09:30pm 7.8 4.8 1.0 62 2.8 E 6 6 3 3 1022.3 - 0.0
28/09:00pm 8.5 5.9 1.2 60 3.0 ESE 4 6 2 3 1022.3 1022.4 0.0
28/08:30pm 9.0 6.0 1.0 57 3.3 ESE 6 7 3 4 1022.3 - 0.0
28/08:00pm 9.7 6.6 1.6 57 3.4 SE 7 9 4 5 1022.1 - 0.0
28/07:30pm 10.5 7.4 1.6 54 3.8 SE 7 9 4 5 1022.1 - 0.0
28/07:00pm 11.7 8.8 1.6 50 4.3 SE 6 7 3 4 1021.8 - 0.0
28/06:30pm 13.4 10.4 0.8 42 5.4 SE 6 7 3 4 1021.5 - 0.0
28/06:00pm 15.2 12.1 -0.1 35 6.5 SE 6 7 3 4 1021.3 1021.4 0.0
28/05:30pm 17.7 14.1 0.4 31 7.6 SSE 9 9 5 5 1021.1 - 0.0
28/05:00pm 19.3 16.0 0.4 28 8.5 SSE 7 9 4 5 1021.0 - 0.0
28/04:30pm 19.9 16.8 -0.1 26 8.9 SSE 6 11 3 6 1021.0 - 0.0
28/04:00pm 20.6 17.8 -0.7 24 9.4 N 4 9 2 5 1021.0 - 0.0
28/03:30pm 20.9 18.2 0.2 25 9.3 WSW 4 11 2 6 1021.0 - 0.0
28/03:00pm 20.5 17.2 -0.2 25 9.2 NW 7 13 4 7 1021.1 1021.2 0.0
28/02:30pm 20.2 16.2 0.6 27 8.9 S 11 15 6 8 1021.3 - 0.0
28/02:00pm 19.9 16.2 -0.1 26 8.9 NW 9 11 5 6 1021.8 - 0.0
28/01:30pm 19.4 14.9 -0.6 26 8.8 SSW 13 19 7 10 1022.2 - 0.0
28/01:00pm 19.2 14.8 0.3 28 8.4 SW 13 20 7 11 1022.8 - 0.0
28/12:30pm 19.8 16.2 0.3 27 8.7 W 9 19 5 10 1023.4 - 0.0
28/12:00pm 18.4 14.8 0.5 30 7.9 S 9 15 5 8 1023.9 1024.0 0.0
28/11:30am 19.2 16.2 1.7 31 8.0 N 7 11 4 6 1024.3 - 0.0
28/11:00am 18.7 15.9 2.1 33 7.6 N 6 13 3 7 1024.7 - 0.0
28/10:30am 17.3 14.5 2.9 38 6.7 N 7 11 4 6 1025.2 - 0.0
28/10:00am 16.5 13.4 3.6 42 6.0 NNE 9 13 5 7 1025.6 - 0.0
28/09:30am 15.0 11.6 3.8 47 5.2 NE 11 15 6 8 1025.4 - 0.0
28/09:00am 12.8 9.0 3.7 54 4.1 NNE 13 17 7 9 1025.4 1025.5 0.0
28/08:30am 10.8 8.1 3.8 62 3.1 NE 7 9 4 5 1025.1 - 0.0
28/08:00am 7.6 5.0 4.2 79 1.5 NNE 7 9 4 5 1024.8 - 0.0
28/07:30am 2.7 -0.2 1.4 91 0.5 NNE 6 7 3 4 1024.8 - 0.0
28/07:00am 2.0 -1.0 0.5 90 0.6 NNE 6 7 3 4 1024.6 - 0.0
28/06:30am 1.9 0.0 0.3 89 0.6 CALM 0 0 0 0 1024.4 - 0.0
28/06:00am 2.2 0.3 0.6 89 0.6 CALM 0 0 0 0 1024.2 1024.3 0.0
28/05:30am 2.4 0.5 0.6 88 0.7 CALM 0 0 0 0 1023.9 - 0.0
28/05:00am 2.6 0.7 0.5 86 0.8 CALM 0 0 0 0 1023.7 - 0.0
28/04:30am 2.9 1.0 0.5 84 0.9 CALM 0 0 0 0 1023.5 - 0.0
28/04:00am 3.4 1.6 1.0 84 0.9 CALM 0 0 0 0 1023.4 - 0.0
28/03:30am 3.3 1.4 0.7 83 1.0 CALM 0 0 0 0 1023.7 - 0.0
28/03:00am 3.4 1.5 0.8 83 1.0 CALM 0 0 0 0 1023.4 1023.5 0.0
28/02:30am 3.7 1.9 0.9 82 1.1 CALM 0 0 0 0 1023.4 - 0.0
28/02:00am 4.0 1.7 0.7 79 1.3 NE 2 6 1 3 1023.6 - 0.0
28/01:30am 4.4 2.6 1.3 80 1.2 CALM 0 0 0 0 1023.8 - 0.0
28/01:00am 5.0 3.3 1.7 79 1.3 CALM 0 0 0 0 1024.0 - 0.0
28/12:30am 5.3 3.5 1.4 76 1.6 CALM 0 0 0 0 1024.2 - 0.0
28/12:00am 5.7 4.0 1.6 75 1.6 CALM 0 0 0 0 1024.4 1024.5 0.0
 
Date/Time
EST
Temp
°C
App
Temp
°C
Dew
Point
Rel
Hum
%
Delta-T
°C
Wind Press
QNH
hPa
Press
MSL
hPa
Rain
since 9 am
mm
Dir
 
Spd
km/h
Gust
km/h
Spd
kts
Gust
kts
27/11:30pm 6.1 4.4 1.8 74 1.8 CALM 0 0 0 0 1024.8 - 0.0
27/11:00pm 6.3 4.7 2.2 75 1.7 CALM 0 0 0 0 1024.9 - 0.0
27/10:30pm 7.1 5.5 2.4 72 2.0 CALM 0 0 0 0 1024.9 - 0.0
27/10:00pm 7.2 5.5 2.1 70 2.1 CALM 0 0 0 0 1025.0 - 0.0
27/09:30pm 7.6 6.0 2.5 70 2.1 CALM 0 0 0 0 1024.9 - 0.0

Other Formats:

Comma delimited format used in spreadsheet applications
http://www.bom.gov.au/fwo/IDQ60801/IDQ60801.94517.axf

JavaScript Object Notation format (JSON) in row-major order
http://www.bom.gov.au/fwo/IDQ60801/IDQ60801.94517.json